Ana Sayfa
METAR-TAF:

METAR-TAF

Havaalanları :

Derby, Avustralya

Enlem: 17-34-53S, Boylam: 123-49-42E, yükseklik: 91 m

Güncel hava durumu gözlemi

Rapor saat 23:30 UTC de 15 dakika önce yapıldı.
Rüzgar doğu/kuzeydoğudan 6 kt
Sıcaklık 20°C
Nem 26%
Basınç 1013 hPa
Görüş mesafesi 10 km veya daha fazla

METAR: YCIN 182330Z AUTO 06006KT 9999 // NCD 20/M00 Q1013 RF00.0/000.0

Saat: 07:45 (23:45 UTC)

Tahmin

Rapor saat 18:32 UTC de 5 saat ve 13 dakika önce yapıldı.
Ayın 18'si saat 20 UTC'den ayın 19'si saat 08 UTC'ye kadar geçerli Tahmin
Rüzgar doğu/güneydoğudan 7 kt
Görüş mesafesi 10 km veya daha fazla
1500 m altında bulut yok ve kümülonimbus yok
Ayın 19'si saat 0200 UTC'den
Rüzgar kuzeydan 8 kt
Görüş mesafesi 10 km veya daha fazla
1500 m altında bulut yok ve kümülonimbus yok

TAF: YCIN 181832Z 1820/1908 11007KT CAVOK FM190200 36008KT CAVOK

4.000'den fazla havaalanı için hava durumu gözlemleri ve tahminleri (METAR ve TAF raporları).

Kullanılabilir istasyonlar harita üzerinde sarı ve kırmızı noktalarla gösterilir.

İstasyonun adını görmek için fareyi noktanın üzerinde gezdirin.

Sonrasında hava gözlem ve tahminlerini görmek için tıklayın.

Haritayı değiştirmek için: yaklaştırmak için siyah artı işaretli yeşil düğmeye ve uzaklaştırmak için de eksi işaretli düğmeye hızla tıklayın; bitişik haritalar için yeşil okları kullanın.


METAR-TAF: